Terminal Aerodrome Forecast
Issued by NWS New Orleans/Baton Rouge, LA

Current Version | Previous Version | Text Only | Print | Product List | Glossary On
Versions: 1 2 3 4 5 6 7 8 9 10 11 12
379
FTUS44 KLIX 201720
TAFBTR
TAF
KBTR 201720Z 2018/2118 08008KT P6SM SCT025 BKN250
     FM211200 11006KT P6SM SCT008 BKN025
     FM211300 11007KT P6SM SCT020 BKN045 PROB30 2113/2118 4SM -TSRA
      BKN020CB=

USA.gov is the U.S. government's official web portal to all federal, state and local government web resources and services.